LXGB Airport Information

Runway Information
Runway 09 Length 6000 ft width 150 ft Elevation 10 ft Threshold 302 ft Heading 88
Runway 27 Length 6000 ft Width 150 ft Elevation 11 ft Threshold 368 ft Heading 268
Airport Frequencies
Type A/D Name APP Frequency 122.8 MHZ
Type OPS Name GIB TALKDO Frequency 130.4 MHZ
Type TWR Name TWR Frequency 131.2 MHZ
Airport Navaids
Type TACAN Name Gibraltar Frequency 113600 KHZ
Airport Weather Information & NOTAM
ADDS - METARS form results

(0102 UTC 05 February 2023)
Data provider http://aviationweather.gov/metar/data/
 
METAR text: LXGB 050020Z AUTO 26003KT 9999 NCD 10/08 Q1029
Conditions at: LXGB (GIBRALTAR (CIV/M, GI) observed 0020 UTC 05 February 2023
Temperature: 10.0°C (50°F)
Dewpoint: 8.0°C (46°F) [RH = 87%]
Pressure (altimeter): 30.38 inches Hg (1029.0 mb)
Winds: from the W (260 degrees) at 3 MPH (3 knots; 1.5 m/s)
Visibility: 6 or more miles (10+ km)
Ceiling: at least 12,000 feet AGL
Clouds: sky clear below 12,000 feet AGL
Weather: no significant weather observed at this time

Forecast for: LXGB (GIBRALTAR (CIV/M, GI)
Text: TAF LXGB 041652Z 0418/0423 10010KT 9999 FEW022
Forecast period: 1800 to 2300 UTC 04 February 2023
Forecast type: FROM: standard forecast or significant change
Winds: from the E (100 degrees) at 12 MPH (10 knots; 5.1 m/s)
Visibility: 6 or more miles (10+ km)
Ceiling: at least 12,000 feet AGL
Clouds: few clouds at 2200 feet AGL
Weather: no significant weather forecast for this period